Portada
METAR-TAF:

METAR-TAF

Aeropuertos :

Mount Pleasant Regional Airport

Mount Pleasant, Texas, Estados Unidos

latitud: 33-05-43N, longitud: 094-57-41W, altitud: 111 m

Observación

El informe se hizo hace 18 minutos, a las 17:55 UTC
Viento 11 kt del sur con ráfagas de 20 kt
Temperatura 14°C
Humedad 38%
Presión 1027 hPa
Visibilidad: 16.1 km
Cielo despejado

METAR: KOSA 111755Z AUTO 18011G20KT 10SM CLR 14/00 A3033 RMK AO1 T01351002 10135 21011

Hora: 12:13 (18:13 UTC)


TAF: falta

Observaciones y pronósticos meteorológicos de más de 4000 aeropuertos (mensajes METAR y TAF).

Los puntos amarillos y rojos representan las estaciones disponibles.

Ponga el ratón en el punto deseado para ver el nombre de la estación.

Haga clic para ver las observaciones y los pronósticos meteorológicos.

Para cambiar el mapa : haga clic en los botones verdes con una cruz de color negro para hacer un zoom, en el botón verde con un guión para alejar o en las flechas verdes para mapas adyacentes.


METAR-TAF: